Flight Track Log - Related Links

Times and Time Zones

All times are in EDT time to prevent confusion due to time zone crossing. See the SWA1044 flight status page for this flight to view local times or setup timezone preferences in your user account.

Time Position Orientation Groundspeed Altitude Reporting Facility
EDT Latitude Longitude Course Direction KTS MPH feet Rate Location/Type
Fri 12:13:10 30.0247 -90.3383 301° West 198 228 2,700  Level Houston Center
Fri 12:13:32 30.0339 -90.3442 331° Northwest 212 244 3,100 2,066 Climbing Houston Center
Fri 12:14:11 30.0778 -90.3747 329° Northwest 241 277 4,800 2,516 Climbing Houston Center
Fri 12:14:34 30.0983 -90.3972 317° Northwest 232 267 5,700 3,247 Climbing Houston Center
Fri 12:15:36 30.1456 -90.4628 310° West 255 293 9,400 2,855 Climbing Houston Center
Fri 12:16:38 30.1978 -90.5281 313° West 276 318 11,600 2,129 Climbing Houston Center
Fri 12:17:40 30.2675 -90.6078 315° West 346 398 13,800 2,496 Climbing Houston Center
Fri 12:18:43 30.3397 -90.6889 316° Northwest 360 414 16,800 2,496 Climbing Houston Center
Fri 12:19:45 30.4156 -90.7731 316° Northwest 373 429 19,000 2,226 Climbing Houston Center
Fri 12:20:47 30.4972 -90.8592 318° Northwest 391 450 21,400 1,935 Climbing Houston Center
Fri 12:21:49 30.5975 -90.9644 318° Northwest 403 464 23,000 1,500 Climbing Houston Center
Fri 12:22:51 30.6619 -91.0697 305° West 399 459 24,500 1,645 Climbing Houston Center
Fri 12:23:53 30.7100 -91.1850 296° West 398 458 26,400 1,742 Climbing Houston Center
Fri 12:24:55 30.7664 -91.3172 296° West 411 473 28,100 1,742 Climbing Houston Center
Fri 12:25:57 30.8175 -91.4403 296° West 421 484 30,000 1,839 Climbing Houston Center
Fri 12:26:59 30.8683 -91.5606 296° West 415 478 31,900 1,776 Climbing Houston Center
Fri 12:28:02 30.9156 -91.6792 295° West 405 466 33,700 1,584 Climbing Houston Center
Fri 12:29:04 30.9603 -91.7972 294° West 399 459 35,200 1,452 Climbing Houston Center
Fri 12:30:06 31.0139 -91.9378 294° West 395 455 36,700 1,016 Climbing Houston Center
Fri 12:31:08 31.0517 -92.0411 293° West 396 456 37,300 629 Climbing Houston Center
Fri 12:32:10 31.1056 -92.1842 294° West 403 464 38,000 339 Climbing Houston Center
Fri 12:33:12 31.1494 -92.3025 293° West 402 463 38,000  Level Houston Center
Fri 12:34:14 31.1933 -92.4217 293° West 400 460 38,000  Level Houston Center
Fri 12:35:16 31.2375 -92.5422 293° West 404 465 38,000  Level Houston Center
Fri 12:36:18 31.2839 -92.6625 294° West 406 467 38,000  Level Houston Center
Fri 12:37:21 31.3283 -92.7833 293° West 406 467 38,000  Level Houston Center
Fri 12:38:23 31.3811 -92.9253 294° West 400 460 38,000  Level Houston Center
Fri 12:39:25 31.4239 -93.0444 293° West 399 459 38,000  Level Houston Center
Fri 12:40:27 31.4675 -93.1622 293° West 397 457 38,000  Level Houston Center
Fri 12:41:29 31.5117 -93.2864 293° West 395 455 38,000  Level Houston Center
Fri 12:42:31 31.5553 -93.4044 293° West 396 456 38,000  Level Houston Center
Fri 12:43:33 31.5975 -93.5231 293° West 396 456 38,000  Level Houston Center
Fri 12:44:35 31.6419 -93.6444 293° West 395 455 38,000  Level Houston Center
Fri 12:44:56 31.6597 -93.6964 292° West 397 457 38,000  Level Fort Worth Center
Fri 12:45:56 31.7006 -93.8144 292° West 397 457 38,000  Level Fort Worth Center
Fri 12:46:56 31.7436 -93.9347 293° West 397 457 38,000  Level Fort Worth Center
Fri 12:47:56 31.7844 -94.0506 293° West 392 451 38,000  Level Fort Worth Center
Fri 12:48:55 31.8272 -94.1689 293° West 392 451 38,000  Level Fort Worth Center
Fri 12:49:56 31.8697 -94.2872 293° West 392 451 38,000  Level Fort Worth Center
Fri 12:50:56 31.9103 -94.4056 292° West 392 451 38,000  Level Fort Worth Center
Fri 12:51:56 31.9528 -94.5242 293° West 392 451 38,000  Level Fort Worth Center
Fri 12:52:55 31.9931 -94.6431 292° West 392 451 38,000  Level Fort Worth Center
Fri 12:53:56 32.0353 -94.7617 293° West 392 451 38,000  Level Fort Worth Center
Fri 12:54:56 32.0753 -94.8831 291° West 392 451 38,000  Level Fort Worth Center
Fri 12:55:55 32.1172 -94.9997 293° West 392 451 38,000  Level Fort Worth Center
Fri 12:56:56 32.1592 -95.1189 293° West 392 451 38,000  Level Fort Worth Center
Fri 12:57:56 32.1989 -95.2381 292° West 392 451 38,000  Level Fort Worth Center
Fri 12:58:56 32.2383 -95.3600 291° West 392 451 38,000  Level Fort Worth Center
Fri 12:59:56 32.2778 -95.4794 291° West 392 451 38,000  Level Fort Worth Center
Fri 13:00:56 32.3194 -95.6017 292° West 392 451 38,000  Level Fort Worth Center
Fri 13:01:56 32.3586 -95.7239 291° West 392 451 38,000  Level Fort Worth Center
Fri 13:02:56 32.4019 -95.8411 294° West 392 451 38,000  Level Fort Worth Center
Fri 13:03:55 32.4453 -95.9733 291° West 391 450 38,000  Level Fort Worth Center
Fri 13:04:56 32.4861 -96.0958 292° West 391 450 38,000  Level Fort Worth Center
Fri 13:05:56 32.5250 -96.2136 291° West 396 456 38,000  Level Fort Worth Center
Fri 13:06:56 32.5658 -96.3361 292° West 391 450 38,000  Level Fort Worth Center
Fri 13:07:56 32.6042 -96.4542 291° West 391 450 38,000  Level Fort Worth Center
Fri 13:08:56 32.6428 -96.5769 291° West 391 450 38,000  Level Fort Worth Center
Fri 13:09:56 32.6831 -96.7000 291° West 391 450 38,000  Level Fort Worth Center
Fri 13:10:56 32.7214 -96.8208 291° West 391 450 38,000  Level Fort Worth Center
Fri 13:11:56 32.7594 -96.9342 292° West 391 450 38,000  Level Fort Worth Center
Fri 13:12:56 32.7994 -97.0550 292° West 391 450 38,000  Level Fort Worth Center
Fri 13:13:56 32.8372 -97.1736 291° West 391 450 38,000  Level Fort Worth Center
Fri 13:14:56 32.8772 -97.2897 292° West 391 450 38,000  Level Fort Worth Center
Fri 13:15:56 32.9106 -97.3961 290° West 386 444 38,000  Level Fort Worth Center
Fri 13:16:56 32.9522 -97.5272 291° West 391 450 38,000  Level Fort Worth Center
Fri 13:17:56 32.9856 -97.6436 289° West 385 443 38,000  Level Fort Worth Center
Fri 13:18:56 33.0208 -97.7478 292° West 385 443 38,000  Level Fort Worth Center
Fri 13:19:56 33.0581 -97.8694 290° West 375 432 38,000  Level Fort Worth Center
Fri 13:20:56 33.0889 -97.9689 290° West 368 423 38,000  Level Fort Worth Center
Fri 13:21:56 33.1300 -98.0956 291° West 374 430 38,000  Level Fort Worth Center
Fri 13:22:56 33.1608 -98.1975 290° West 369 425 38,000  Level Fort Worth Center
Fri 13:23:56 33.2017 -98.3244 291° West 369 425 38,000  Level Fort Worth Center
Fri 13:24:55 33.2322 -98.4267 290° West 369 425 38,000  Level Fort Worth Center
Fri 13:25:56 33.2686 -98.5439 290° West 369 425 38,000  Level Fort Worth Center
Fri 13:26:56 33.3053 -98.6586 291° West 369 425 38,000  Level Fort Worth Center
Fri 13:27:56 33.3375 -98.7711 289° West 369 425 38,000  Level Fort Worth Center
Fri 13:28:55 33.3736 -98.8861 291° West 369 425 38,000  Level Fort Worth Center
Fri 13:29:56 33.4078 -99.0011 290° West 369 425 38,000  Level Fort Worth Center
Fri 13:30:55 33.4439 -99.1161 291° West 369 425 38,000  Level Fort Worth Center
Fri 13:31:55 33.4778 -99.2289 290° West 369 425 38,000  Level Fort Worth Center
Fri 13:32:56 33.5136 -99.3467 290° West 369 425 38,000  Level Fort Worth Center
Fri 13:33:56 33.5492 -99.4622 290° West 369 425 38,000  Level Fort Worth Center
Fri 13:34:55 33.5828 -99.5778 289° West 369 425 38,000  Level Fort Worth Center
Fri 13:35:56 33.6161 -99.6933 289° West 369 425 38,000  Level Fort Worth Center
Fri 13:36:56 33.6494 -99.8089 289° West 369 425 38,000  Level Fort Worth Center
Fri 13:37:56 33.6847 -99.9272 290° West 369 425 38,000  Level Fort Worth Center
Fri 13:38:56 33.7197 -100.0506 289° West 369 425 38,000  Level Fort Worth Center
Fri 13:39:56 33.7547 -100.1667 290° West 369 425 38,000  Level Fort Worth Center
Fri 13:40:56 33.7878 -100.2825 289° West 369 425 38,000  Level Fort Worth Center
Fri 13:41:56 33.8225 -100.4036 289° West 369 425 38,000  Level Fort Worth Center
Fri 13:42:56 33.8572 -100.5225 289° West 369 425 38,000  Level Fort Worth Center
Fri 13:43:56 33.8897 -100.6361 289° West 369 425 38,000  Level Fort Worth Center
Fri 13:44:56 33.9242 -100.7550 289° West 369 425 38,000  Level Fort Worth Center
Fri 13:45:56 33.9586 -100.8717 290° West 374 430 38,000  Level Fort Worth Center
Fri 13:46:56 33.9906 -100.9931 288° West 369 425 38,000  Level Fort Worth Center
Fri 13:47:56 34.0247 -101.1147 289° West 378 435 38,000  Level Fort Worth Center
Fri 13:48:56 34.0644 -101.2494 290° West 384 442 38,000  Level Fort Worth Center
Fri 13:49:56 34.0942 -101.3611 288° West 389 448 38,000  Level Fort Worth Center
Fri 13:50:56 34.1317 -101.4931 289° West 378 435 38,000  Level Fort Worth Center
Fri 13:51:56 34.1617 -101.6000 289° West 383 441 38,000  Level Fort Worth Center
Fri 13:52:55 34.1967 -101.7347 287° West 383 441 38,000  Level Fort Worth Center
Fri 13:53:56 34.2264 -101.8442 288° West 383 441 38,000  Level Fort Worth Center
Fri 13:54:56 34.2611 -101.9767 288° West 383 441 38,000  Level Fort Worth Center
Fri 13:56:51 34.3211 -102.1872 289° West 370 426 38,000  Level Albuquerque Center
Fri 13:57:53 34.3536 -102.3067 288° West 371 427 38,000  Level Albuquerque Center
Fri 13:58:55 34.3856 -102.4283 288° West 376 433 38,000  Level Albuquerque Center
Fri 13:59:57 34.4242 -102.5733 288° West 376 433 38,000  Level Albuquerque Center
Fri 14:00:59 34.4572 -102.6950 288° West 378 435 38,000  Level Albuquerque Center
Fri 14:02:01 34.4900 -102.8161 288° West 378 435 38,000  Level Albuquerque Center
Fri 14:03:03 34.5125 -102.9506 282° West 374 430 38,000  Level Albuquerque Center
Fri 14:04:05 34.5322 -103.0747 281° West 373 429 38,000  Level Albuquerque Center
Fri 14:05:07 34.5517 -103.2003 281° West 373 429 38,000  Level Albuquerque Center
Fri 14:06:09 34.5708 -103.3261 281° West 376 433 38,000  Level Albuquerque Center
Fri 14:07:11 34.5886 -103.4533 280° West 378 435 38,000  Level Albuquerque Center
Fri 14:08:13 34.6064 -103.5797 280° West 377 434 38,000  Level Albuquerque Center
Fri 14:09:15 34.6247 -103.7069 280° West 378 435 38,000  Level Albuquerque Center
Fri 14:10:17 34.6433 -103.8358 280° West 380 437 38,000  Level Albuquerque Center
Fri 14:11:19 34.6650 -103.9861 280° West 382 440 38,000  Level Albuquerque Center
Fri 14:12:22 34.6822 -104.1136 279° West 380 437 38,000  Level Albuquerque Center
Fri 14:13:24 34.6994 -104.2411 279° West 378 435 38,000  Level Albuquerque Center
Fri 14:14:26 34.7178 -104.3692 280° West 380 437 38,000  Level Albuquerque Center
Fri 14:15:28 34.7358 -104.4958 280° West 377 434 38,000  Level Albuquerque Center
Fri 14:16:30 34.7533 -104.6231 280° West 377 434 38,000  Level Albuquerque Center
Fri 14:17:32 34.7692 -104.7494 279° West 375 432 38,000  Level Albuquerque Center
Fri 14:18:34 34.7875 -104.8753 280° West 374 430 38,000  Level Albuquerque Center
Fri 14:19:36 34.8078 -105.0219 280° West 373 429 38,000  Level Albuquerque Center
Fri 14:20:38 34.8233 -105.1472 279° West 371 427 38,000  Level Albuquerque Center
Fri 14:21:40 34.8406 -105.2722 280° West 371 427 38,000  Level Albuquerque Center
Fri 14:22:42 34.8569 -105.3992 279° West 375 432 38,000  Level Albuquerque Center
Fri 14:23:44 34.8728 -105.5258 279° West 375 432 38,000  Level Albuquerque Center
Fri 14:24:46 34.8897 -105.6547 279° West 379 436 38,000  Level Albuquerque Center
Fri 14:25:48 34.9047 -105.7828 278° West 379 436 38,000  Level Albuquerque Center
Fri 14:26:50 34.9228 -105.9192 279° West 384 442 38,000  Level Albuquerque Center
Fri 14:27:52 34.9378 -106.0489 278° West 387 445 38,000  Level Albuquerque Center
Fri 14:28:53 34.9531 -106.1778 278° West 386 444 38,000  Level Albuquerque Center
Fri 14:29:55 34.9697 -106.3069 279° West 386 444 38,000  Level Albuquerque Center
Fri 14:30:57 34.9875 -106.4619 278° West 386 444 38,000  Level Albuquerque Center
Fri 14:31:59 35.0014 -106.5842 278° West 391 450 38,000  Level Albuquerque Center
Fri 14:33:01 35.0181 -106.7306 278° West 392 451 38,000  Level Albuquerque Center
Fri 14:34:03 35.0333 -106.8558 279° West 390 449 38,000  Level Albuquerque Center
Fri 14:35:05 35.0519 -106.9992 279° West 388 447 38,000  Level Albuquerque Center
Fri 14:36:07 35.0672 -107.1250 278° West 391 450 38,000  Level Albuquerque Center
Fri 14:37:09 35.0803 -107.2631 277° West 401 461 38,000  Level Albuquerque Center
Fri 14:38:11 35.0953 -107.3953 278° West 397 457 38,000  Level Albuquerque Center
Fri 14:39:13 35.1128 -107.5531 278° West 398 458 38,000  Level Albuquerque Center
Fri 14:40:15 35.1272 -107.6800 278° West 396 456 38,000  Level Albuquerque Center
Fri 14:41:17 35.1417 -107.8094 278° West 399 459 38,000  Level Albuquerque Center
Fri 14:42:18 35.1578 -107.9583 278° West 396 456 38,000  Level Albuquerque Center
Fri 14:43:20 35.1708 -108.0856 277° West 395 455 38,000  Level Albuquerque Center
Fri 14:44:22 35.1867 -108.2325 278° West 391 450 38,000  Level Albuquerque Center
Fri 14:45:24 35.2003 -108.3597 277° West 393 452 38,000  Level Albuquerque Center
Fri 14:46:26 35.2156 -108.5075 277° West 392 451 38,000  Level Albuquerque Center
Fri 14:47:28 35.2286 -108.6353 277° West 393 452 38,000  Level Albuquerque Center
Fri 14:48:30 35.2436 -108.7836 277° West 393 452 38,000  Level Albuquerque Center
Fri 14:49:32 35.2569 -108.9111 277° West 393 452 38,000  Level Albuquerque Center
Fri 14:50:34 35.2700 -109.0394 277° West 395 455 38,000  Level Albuquerque Center
Fri 14:51:36 35.2844 -109.1914 277° West 398 458 38,000  Level Albuquerque Center
Fri 14:52:38 35.2978 -109.3219 277° West 401 461 38,000  Level Albuquerque Center
Fri 14:53:40 35.3114 -109.4747 276° West 402 463 38,000  Level Albuquerque Center
Fri 14:54:41 35.3233 -109.6067 276° West 403 464 38,000  Level Albuquerque Center
Fri 14:55:43 35.3389 -109.7625 277° West 409 471 38,000  Level Albuquerque Center
Fri 14:56:45 35.3503 -109.8981 276° West 414 476 38,000  Level Albuquerque Center
Fri 14:57:47 35.3619 -110.0292 276° West 410 472 38,000  Level Albuquerque Center
Fri 14:58:49 35.3736 -110.1822 275° West 405 466 38,000  Level Albuquerque Center
Fri 14:59:51 35.3869 -110.3147 277° West 406 467 38,000  Level Albuquerque Center
Fri 15:00:53 35.3969 -110.4686 275° West 408 470 38,000  Level Albuquerque Center
Fri 15:01:55 35.4089 -110.6011 276° West 409 471 38,000 -581 Level Albuquerque Center
Fri 15:02:57 35.3933 -110.7547 263° West 411 473 36,800 -1,016 Descending Albuquerque Center
Fri 15:03:59 35.3833 -110.8900 265° West 413 475 35,900 -968 Descending Albuquerque Center
Fri 15:05:01 35.4014 -111.0469 278° West 416 479 34,800 -968 Descending Albuquerque Center
Fri 15:06:03 35.4158 -111.1847 277° West 421 484 33,900 -919 Descending Albuquerque Center
Fri 15:07:05 35.4308 -111.3428 277° West 420 483 32,900 -919 Descending Albuquerque Center
Fri 15:08:07 35.4436 -111.4636 277° West 431 496 32,000 -968 Descending Albuquerque Center
Fri 15:09:09 35.4578 -111.6319 276° West 421 484 30,900 -968 Descending Albuquerque Center
Fri 15:10:11 35.4714 -111.7717 277° West 416 479 30,000 -435 Descending Albuquerque Center
Fri 15:11:13 35.4842 -111.9136 276° West 420 483 30,000  Level Albuquerque Center
Fri 15:12:14 35.4981 -112.0556 277° West 421 484 30,000 -244 Level Albuquerque Center
Fri 15:13:16 35.5103 -112.1981 276° West 423 487 29,500 -871 Descending Albuquerque Center
Fri 15:14:18 35.5250 -112.3658 276° West 419 482 28,200 -726 Descending Albuquerque Center
Fri 15:15:20 35.5372 -112.5003 276° West 402 463 28,000 -88 Descending Albuquerque Center
Fri 15:16:35 35.5531 -112.6689 277° West 392 451 28,000  Level Los Angeles Center
Fri 15:17:36 35.5619 -112.7756 276° West 391 450 28,000  Level Los Angeles Center
Fri 15:18:39 35.5758 -112.9367 276° West 394 453 28,000  Level Los Angeles Center
Fri 15:19:41 35.5869 -113.0733 276° West 393 452 28,000  Level Los Angeles Center
Fri 15:20:43 35.5978 -113.2094 276° West 397 457 28,000 -97 Level Los Angeles Center
Fri 15:21:45 35.6094 -113.3475 276° West 402 463 27,800 -1,161 Descending Los Angeles Center
Fri 15:22:47 35.6214 -113.5058 275° West 393 452 25,600 -2,016 Descending Los Angeles Center
Fri 15:23:50 35.6358 -113.6300 278° West 378 435 23,600 -1,920 Descending Los Angeles Center
Fri 15:24:52 35.6544 -113.7503 281° West 367 422 21,600 -1,839 Descending Los Angeles Center
Fri 15:25:54 35.6706 -113.8661 280° West 349 402 19,800 -1,742 Descending Los Angeles Center
Fri 15:26:56 35.6858 -113.9722 280° West 333 383 18,000 -1,839 Descending Los Angeles Center
Fri 15:27:58 35.7033 -114.1006 280° West 323 372 16,000 -1,742 Descending Los Angeles Center
Fri 15:29:00 35.7189 -114.2094 280° West 314 361 14,400 -1,452 Descending Los Angeles Center
Fri 15:30:02 35.7317 -114.3117 279° West 306 352 13,000 -823 Descending Los Angeles Center
Fri 15:31:04 35.7606 -114.3914 294° West 259 298 12,700 -576 Descending Los Angeles Center
Fri 15:32:07 35.8253 -114.4214 339° North 250 288 11,800 -960 Descending Los Angeles Center
Fri 15:33:09 35.8892 -114.4517 339° North 247 284 10,700 -871 Descending Los Angeles Center
Fri 15:34:11 35.9633 -114.4861 339° North 239 275 10,000 -353 Descending Los Angeles Center
Fri 15:35:08 36.0206 -114.5133 339° North 234 269 10,000 -356 Level Los Angeles Center
Fri 15:36:09 36.0486 -114.5811 297° West 239 275 9,300 -828 Descending Los Angeles Center
Fri 15:37:04 36.0606 -114.6542 281° West 236 272 8,400 -689 Descending Los Angeles Center
Fri 15:38:11 36.0736 -114.7431 280° West 231 266 7,900 -701 Descending Los Angeles Center
Fri 15:39:21 36.0764 -114.8231 272° West 229 264 6,800 -864 Descending Los Angeles Center
Fri 15:40:23 36.0747 -114.9206 269° West 233 268 6,000 -816 Descending Los Angeles Center
Fri 15:41:26 36.0739 -114.9881 269° West 212 244 5,100 -1,248 Descending Los Angeles Center
Fri 15:42:28 36.0744 -115.0433 271° West 178 205 3,400 -1,289 Descending Los Angeles Center
Fri 15:43:27 36.0742 -115.0997 270° West 154 177 2,500 -677 Descending Los Angeles Center
Fri 15:44:32 36.0742 -115.1522 270° West 159 183 2,000 -462 Descending Los Angeles Center

Login

Don't have an account? Register now (free) for customized features, flight alerts, and more!